Time;durP1;ratioP1;P1;durP2;ratioP2;P2;SDS_P1;SDS_P2;PMS_P1;PMS_P2;Temp;Humidity;BMP_temperature;BMP_pressure;BME280_temperature;BME280_humidity;BME280_pressure;Samples;Min_cycle;Max_cycle;Signal;HPM_P1;HPM_P2
2022/08/21 00:00:10;;;;;;;2.00;1.13;;;14.90;99.90;;;;;;5012903;28;20209;-68
2022/08/21 00:02:36;;;;;;;4.50;1.07;;;14.80;99.90;;;;;;5013146;28;20945;-68
2022/08/21 00:05:03;;;;;;;4.50;1.90;;;14.80;99.90;;;;;;5012825;28;20929;-68
2022/08/21 00:07:28;;;;;;;2.60;1.30;;;14.70;99.90;;;;;;5013478;28;20167;-68
2022/08/21 00:09:54;;;;;;;2.10;1.10;;;14.70;99.90;;;;;;5013152;28;20429;-68
2022/08/21 00:12:22;;;;;;;5.43;1.57;;;14.70;99.90;;;;;;5011393;28;20183;-68
2022/08/21 00:14:48;;;;;;;3.47;1.23;;;14.70;99.90;;;;;;5013437;28;20688;-68
2022/08/21 00:17:14;;;;;;;3.50;1.37;;;14.60;99.90;;;;;;5012468;28;20438;-68
2022/08/21 00:19:39;;;;;;;3.07;1.30;;;14.60;99.90;;;;;;5012372;28;20202;-68
2022/08/21 00:22:05;;;;;;;7.53;1.63;;;14.60;99.90;;;;;;5011684;28;20182;-68
2022/08/21 00:24:31;;;;;;;3.50;1.30;;;14.50;99.90;;;;;;5012599;28;20624;-68
2022/08/21 00:26:56;;;;;;;2.73;1.13;;;14.60;99.90;;;;;;5012053;28;20214;-69
2022/08/21 00:29:22;;;;;;;3.27;1.30;;;14.60;99.90;;;;;;5013068;28;20222;-68
2022/08/21 00:31:48;;;;;;;2.37;1.53;;;14.50;99.90;;;;;;5010981;28;20194;-68
2022/08/21 00:34:13;;;;;;;2.80;1.67;;;14.50;99.90;;;;;;5012239;28;20187;-68
2022/08/21 00:36:39;;;;;;;3.03;1.50;;;14.50;99.90;;;;;;5012942;28;20262;-68
2022/08/21 00:39:07;;;;;;;3.70;1.30;;;14.50;99.90;;;;;;5011773;28;20191;-68
2022/08/21 00:41:35;;;;;;;5.27;1.50;;;14.40;99.90;;;;;;5011509;28;20215;-68
2022/08/21 00:44:01;;;;;;;4.73;1.80;;;14.40;99.90;;;;;;5011824;28;20552;-68
2022/08/21 00:46:27;;;;;;;5.33;1.40;;;14.40;99.90;;;;;;5012815;28;20417;-68
2022/08/21 00:48:52;;;;;;;3.57;2.00;;;14.40;99.90;;;;;;5014379;28;20471;-68
2022/08/21 00:51:31;;;;;;;1.93;1.07;;;14.30;99.90;;;;;;5011316;28;20442;-68
2022/08/21 00:54:00;;;;;;;4.10;1.33;;;14.30;99.90;;;;;;5011996;28;20207;-68
2022/08/21 00:56:28;;;;;;;2.77;1.20;;;14.30;99.90;;;;;;5012522;28;20414;-68
2022/08/21 00:58:57;;;;;;;3.43;1.17;;;14.20;99.90;;;;;;5011323;28;21183;-68
2022/08/21 01:01:23;;;;;;;4.93;1.53;;;14.20;99.90;;;;;;5011898;28;21066;-68
2022/08/21 01:03:49;;;;;;;2.50;0.90;;;14.20;99.90;;;;;;5011753;28;21199;-68
2022/08/21 01:06:15;;;;;;;4.03;1.10;;;14.20;99.90;;;;;;5012524;28;20414;-68
2022/08/21 01:08:42;;;;;;;3.60;1.60;;;14.10;99.90;;;;;;5011703;28;20779;-68
2022/08/21 01:11:08;;;;;;;2.97;1.17;;;14.10;99.90;;;;;;5011168;28;20193;-68
2022/08/21 01:13:36;;;;;;;2.40;1.30;;;14.00;99.90;;;;;;5010383;28;20442;-68
2022/08/21 01:16:04;;;;;;;2.27;1.23;;;14.00;99.90;;;;;;5012452;28;20663;-68
2022/08/21 01:18:31;;;;;;;2.67;1.13;;;14.00;99.90;;;;;;5011377;28;20516;-68
2022/08/21 01:21:19;;;;;;;8.83;1.30;;;14.00;99.90;;;;;;5010991;28;20462;-69
2022/08/21 01:23:48;;;;;;;3.00;1.30;;;14.00;99.90;;;;;;5012578;28;20770;-68
2022/08/21 01:26:19;;;;;;;2.80;1.50;;;13.90;99.90;;;;;;5011254;28;20434;-68
2022/08/21 01:29:19;;;;;;;2.30;1.30;;;13.90;99.90;;;;;;5011570;28;20445;-68
2022/08/21 01:31:45;;;;;;;2.60;1.57;;;13.80;99.90;;;;;;4998377;28;20449;-68
2022/08/21 01:34:11;;;;;;;3.17;1.30;;;13.80;99.90;;;;;;5015139;28;20430;-69
2022/08/21 01:36:37;;;;;;;1.97;1.10;;;13.80;99.90;;;;;;5015847;28;20796;-68
2022/08/21 01:39:04;;;;;;;4.17;1.63;;;13.70;99.90;;;;;;5015150;28;20202;-68
2022/08/21 01:41:30;;;;;;;6.60;2.00;;;13.70;99.90;;;;;;5013696;28;20206;-68
2022/08/21 01:43:56;;;;;;;2.70;1.13;;;13.70;99.90;;;;;;5015022;28;20433;-68
2022/08/21 01:46:21;;;;;;;2.50;1.33;;;13.60;99.90;;;;;;5015446;28;20662;-68
2022/08/21 01:48:47;;;;;;;4.50;1.63;;;13.60;99.90;;;;;;5018540;28;20437;-68
2022/08/21 01:51:13;;;;;;;3.03;1.30;;;13.60;99.90;;;;;;5015708;28;20211;-67
2022/08/21 01:53:39;;;;;;;2.93;1.43;;;13.60;99.90;;;;;;5015121;28;20194;-67
2022/08/21 01:56:08;;;;;;;4.03;1.40;;;13.50;99.90;;;;;;5018080;28;20689;-67
2022/08/21 01:58:33;;;;;;;3.63;1.67;;;13.50;99.90;;;;;;5014825;28;20191;-67
2022/08/21 02:01:01;;;;;;;3.73;1.30;;;13.40;99.90;;;;;;5014440;28;20556;-67
2022/08/21 02:03:27;;;;;;;4.07;1.40;;;13.40;99.90;;;;;;5014820;28;20203;-67
2022/08/21 02:05:53;;;;;;;2.50;1.50;;;13.40;99.90;;;;;;5015712;28;20484;-67
2022/08/21 02:08:22;;;;;;;1.83;1.20;;;13.30;99.90;;;;;;5015135;28;20903;-67
2022/08/21 02:10:49;;;;;;;2.00;1.20;;;13.30;99.90;;;;;;5015083;28;20274;-67
2022/08/21 02:13:15;;;;;;;3.63;1.43;;;13.20;99.90;;;;;;5014571;28;20437;-67
2022/08/21 02:15:40;;;;;;;5.40;1.83;;;13.30;99.90;;;;;;5014504;28;20441;-67
2022/08/21 02:18:07;;;;;;;2.87;1.20;;;13.20;99.90;;;;;;5014003;28;20270;-67
2022/08/21 02:20:39;;;;;;;3.80;1.27;;;13.10;99.90;;;;;;5014966;28;20261;-67
2022/08/21 02:23:07;;;;;;;5.33;1.40;;;13.10;99.90;;;;;;5014513;28;20410;-67
2022/08/21 02:25:33;;;;;;;2.93;1.33;;;13.10;99.90;;;;;;5013595;28;20438;-67
2022/08/21 02:28:03;;;;;;;4.50;1.33;;;13.00;99.90;;;;;;5015179;28;20933;-67
2022/08/21 02:30:37;;;;;;;2.27;1.57;;;13.00;99.90;;;;;;5015100;28;20505;-67
2022/08/21 02:33:04;;;;;;;2.70;1.50;;;13.00;99.90;;;;;;5013779;28;20959;-66
2022/08/21 02:35:30;;;;;;;3.53;1.33;;;13.00;99.90;;;;;;5013917;28;20445;-66
2022/08/21 02:37:59;;;;;;;1.97;1.30;;;12.90;99.90;;;;;;5015147;28;20464;-66
2022/08/21 02:40:30;;;;;;;2.27;1.30;;;12.90;99.90;;;;;;5014743;28;21339;-67
2022/08/21 02:42:56;;;;;;;5.03;1.50;;;12.80;99.90;;;;;;5013067;28;20894;-66
2022/08/21 02:45:22;;;;;;;2.17;1.27;;;12.80;99.90;;;;;;5014529;28;20425;-67
2022/08/21 02:47:54;;;;;;;2.97;1.20;;;12.80;99.90;;;;;;5015006;28;21018;-67
2022/08/21 02:50:48;;;;;;;2.00;1.23;;;12.80;99.90;;;;;;5017613;28;20270;-66
2022/08/21 02:53:16;;;;;;;2.40;1.30;;;12.70;99.90;;;;;;4996491;28;20434;-66
2022/08/21 02:55:46;;;;;;;2.73;1.40;;;12.70;99.90;;;;;;5013987;28;20438;-66
2022/08/21 02:58:14;;;;;;;5.17;1.70;;;12.70;99.90;;;;;;5006276;28;20418;-66
2022/08/21 03:00:40;;;;;;;6.13;1.53;;;12.70;99.90;;;;;;5014663;28;20536;-67
2022/08/21 03:03:06;;;;;;;5.33;2.17;;;12.60;99.90;;;;;;5013702;28;21290;-66
2022/08/21 03:05:34;;;;;;;2.67;1.57;;;12.50;99.90;;;;;;5014156;28;20434;-67
2022/08/21 03:08:01;;;;;;;5.23;2.03;;;12.50;99.90;;;;;;5014954;28;20414;-66
2022/08/21 03:10:28;;;;;;;3.40;1.63;;;12.60;99.90;;;;;;5013939;28;20430;-66
2022/08/21 03:12:54;;;;;;;3.30;1.70;;;12.50;99.90;;;;;;5014123;28;20433;-66
2022/08/21 03:15:23;;;;;;;3.07;1.43;;;12.50;99.90;;;;;;5012674;28;20821;-67
2022/08/21 03:17:50;;;;;;;4.47;1.47;;;12.50;99.90;;;;;;5014560;28;20426;-66
2022/08/21 03:20:19;;;;;;;3.87;1.50;;;12.50;99.90;;;;;;5013098;28;20462;-67
2022/08/21 03:22:46;;;;;;;4.10;1.90;;;12.40;99.90;;;;;;5013178;28;20492;-67
2022/08/21 03:25:12;;;;;;;2.07;1.23;;;12.50;99.90;;;;;;5013472;28;20470;-67
2022/08/21 03:27:38;;;;;;;2.27;1.17;;;12.50;99.90;;;;;;5013294;28;20846;-66
2022/08/21 03:30:05;;;;;;;3.40;1.10;;;12.40;99.90;;;;;;5012771;28;20183;-66
2022/08/21 03:32:31;;;;;;;3.77;1.90;;;12.40;99.90;;;;;;5012889;28;20951;-66
2022/08/21 03:34:57;;;;;;;2.43;1.40;;;12.40;99.90;;;;;;5013128;28;20446;-66
2022/08/21 03:37:24;;;;;;;3.50;1.47;;;12.30;99.90;;;;;;5014017;28;20542;-66
2022/08/21 03:39:50;;;;;;;4.20;1.90;;;12.30;99.90;;;;;;5013053;28;20466;-67
2022/08/21 03:42:16;;;;;;;3.40;1.50;;;12.30;99.90;;;;;;5013620;28;20424;-66
2022/08/21 03:44:42;;;;;;;2.73;1.90;;;12.20;99.90;;;;;;5012510;28;20430;-67
2022/08/21 03:47:09;;;;;;;6.43;1.90;;;12.20;99.90;;;;;;5013595;28;20425;-67
2022/08/21 03:49:35;;;;;;;2.80;1.63;;;12.10;99.90;;;;;;5016444;28;20179;-66
2022/08/21 03:52:03;;;;;;;2.30;1.30;;;12.10;99.90;;;;;;5013308;28;20433;-66
2022/08/21 03:54:29;;;;;;;4.23;2.07;;;12.20;99.90;;;;;;5012033;28;20437;-67
2022/08/21 03:56:55;;;;;;;5.03;1.17;;;12.20;99.90;;;;;;5013486;28;20418;-66
2022/08/21 03:59:21;;;;;;;3.20;1.90;;;12.20;99.90;;;;;;5012155;28;20179;-67
2022/08/21 04:02:01;;;;;;;2.70;1.10;;;12.20;99.90;;;;;;5011357;28;20592;-66
2022/08/21 04:04:28;;;;;;;3.80;1.60;;;12.20;99.90;;;;;;5006843;28;20647;-66
2022/08/21 04:06:55;;;;;;;5.00;2.00;;;12.20;99.90;;;;;;5012680;28;20453;-66
2022/08/21 04:09:21;;;;;;;2.40;1.20;;;12.10;99.90;;;;;;5013438;28;20456;-67
2022/08/21 04:11:47;;;;;;;2.20;1.20;;;12.00;99.90;;;;;;5010411;28;20445;-66
2022/08/21 04:14:13;;;;;;;3.07;1.63;;;12.00;99.90;;;;;;5012258;28;20187;-66
2022/08/21 04:16:40;;;;;;;3.70;1.47;;;11.90;99.90;;;;;;5011442;28;20449;-66
2022/08/21 04:19:06;;;;;;;4.10;1.87;;;11.90;99.90;;;;;;5012379;28;20438;-66
2022/08/21 04:21:32;;;;;;;3.03;1.67;;;11.90;99.90;;;;;;5012579;28;20501;-66
2022/08/21 04:23:59;;;;;;;6.20;1.77;;;11.90;99.90;;;;;;5012686;28;20485;-66
2022/08/21 04:26:25;;;;;;;3.90;2.00;;;11.80;99.90;;;;;;5012566;28;20266;-66
2022/08/21 04:28:52;;;;;;;3.40;1.90;;;11.90;99.90;;;;;;5013106;28;20424;-66
2022/08/21 04:31:18;;;;;;;6.30;1.60;;;11.70;99.90;;;;;;5008037;28;21074;-66
2022/08/21 04:33:44;;;;;;;3.77;2.40;;;11.70;99.90;;;;;;5009103;28;20511;-66
2022/08/21 04:36:10;;;;;;;2.80;1.30;;;11.80;99.90;;;;;;5013028;28;20413;-66
2022/08/21 04:38:36;;;;;;;4.20;1.70;;;11.70;99.90;;;;;;5013198;28;20476;-66
2022/08/21 04:41:02;;;;;;;6.30;2.50;;;11.70;99.90;;;;;;5012400;28;20558;-66
2022/08/21 04:43:28;;;;;;;5.80;2.10;;;11.70;99.90;;;;;;5012343;28;20175;-67
2022/08/21 04:45:54;;;;;;;3.70;1.80;;;11.70;99.90;;;;;;5012822;28;20225;-66
2022/08/21 04:48:22;;;;;;;2.97;1.70;;;11.80;99.90;;;;;;5011499;28;20891;-66
2022/08/21 04:50:57;;;;;;;4.80;1.50;;;11.80;99.90;;;;;;5007893;28;20540;-67
2022/08/21 04:53:37;;;;;;;4.13;1.80;;;11.70;99.90;;;;;;5012574;28;20421;-66
2022/08/21 04:56:14;;;;;;;4.20;1.60;;;11.70;99.90;;;;;;5012571;28;20406;-66
2022/08/21 04:58:41;;;;;;;2.80;1.43;;;11.80;99.90;;;;;;5012721;28;20549;-67
2022/08/21 05:01:10;;;;;;;3.10;1.57;;;11.90;99.90;;;;;;5020732;28;20479;-66
2022/08/21 05:03:37;;;;;;;5.87;1.37;;;12.00;99.90;;;;;;5011646;28;20442;-66
2022/08/21 05:06:08;;;;;;;7.47;2.37;;;11.90;99.90;;;;;;5010590;28;20421;-66
2022/08/21 05:08:34;;;;;;;3.40;2.00;;;11.90;99.90;;;;;;5009089;28;20521;-66
2022/08/21 05:11:00;;;;;;;2.53;1.60;;;11.90;99.90;;;;;;5008252;28;21127;-66
2022/08/21 05:13:26;;;;;;;1.93;1.30;;;11.90;99.90;;;;;;5010958;28;20529;-66
2022/08/21 05:15:52;;;;;;;4.70;1.97;;;12.00;99.90;;;;;;5011490;28;20191;-66
2022/08/21 05:18:17;;;;;;;4.13;1.70;;;12.10;99.90;;;;;;5011679;28;20417;-66
2022/08/21 05:20:44;;;;;;;5.47;1.90;;;12.10;99.90;;;;;;5011549;28;20265;-67
2022/08/21 05:23:13;;;;;;;2.10;1.23;;;12.20;99.90;;;;;;5010494;28;20183;-67
2022/08/21 05:25:39;;;;;;;5.43;2.17;;;12.30;99.90;;;;;;5010819;28;20898;-67
2022/08/21 05:28:06;;;;;;;7.73;1.67;;;12.30;99.90;;;;;;5012179;28;20465;-67
2022/08/21 05:30:32;;;;;;;6.60;1.80;;;12.40;99.90;;;;;;5003459;28;20454;-66
2022/08/21 05:32:59;;;;;;;13.03;1.97;;;12.40;99.90;;;;;;5019054;28;20536;-66
2022/08/21 05:35:26;;;;;;;2.83;1.43;;;12.40;99.90;;;;;;5011329;28;20525;-66
2022/08/21 05:37:52;;;;;;;3.40;2.07;;;12.60;99.90;;;;;;5012095;28;20418;-67
2022/08/21 05:40:18;;;;;;;4.50;1.87;;;12.70;99.90;;;;;;5010020;28;20850;-67
2022/08/21 05:42:43;;;;;;;2.70;1.50;;;12.80;99.90;;;;;;5010938;28;20190;-66
2022/08/21 05:45:10;;;;;;;3.30;2.00;;;12.80;99.90;;;;;;5007663;28;20446;-66
2022/08/21 05:47:35;;;;;;;5.37;1.70;;;12.90;99.90;;;;;;5011823;28;20186;-66
2022/08/21 05:50:01;;;;;;;3.20;1.83;;;12.90;99.90;;;;;;5012773;28;20800;-69
2022/08/21 05:52:27;;;;;;;3.67;1.77;;;13.00;99.90;;;;;;5009603;28;20565;-67
2022/08/21 05:54:55;;;;;;;5.40;1.90;;;13.10;99.90;;;;;;5011561;28;20199;-67
2022/08/21 05:57:21;;;;;;;2.70;1.80;;;13.30;99.90;;;;;;5009999;28;20191;-67
2022/08/21 05:59:47;;;;;;;2.53;1.60;;;13.40;99.90;;;;;;5016076;28;20453;-67
2022/08/21 06:02:13;;;;;;;7.10;2.27;;;13.40;99.90;;;;;;5010760;28;20426;-67
2022/08/21 06:04:40;;;;;;;4.00;1.70;;;13.50;99.90;;;;;;5008095;28;20441;-67
2022/08/21 06:07:06;;;;;;;2.53;1.57;;;13.60;99.90;;;;;;5011714;28;20194;-67
2022/08/21 06:09:32;;;;;;;2.23;1.40;;;13.70;99.90;;;;;;5009844;28;20529;-67
2022/08/21 06:11:58;;;;;;;3.30;1.57;;;13.80;99.90;;;;;;5010396;28;21050;-67
2022/08/21 06:14:23;;;;;;;3.37;1.40;;;13.80;99.90;;;;;;5010806;28;20513;-67
2022/08/21 06:16:49;;;;;;;3.47;2.03;;;13.90;99.90;;;;;;5014108;28;20183;-67
2022/08/21 06:19:15;;;;;;;2.93;1.67;;;14.00;99.90;;;;;;5015503;28;20198;-66
2022/08/21 06:21:40;;;;;;;3.30;1.73;;;14.10;99.90;;;;;;5014590;28;20554;-67
2022/08/21 06:24:06;;;;;;;2.70;1.50;;;14.20;99.90;;;;;;5015615;28;20175;-67
2022/08/21 06:26:32;;;;;;;3.57;1.70;;;14.30;99.90;;;;;;5015280;28;20179;-67
2022/08/21 06:28:58;;;;;;;4.70;2.20;;;14.50;99.90;;;;;;5015420;28;20417;-67
2022/08/21 06:31:26;;;;;;;4.43;1.97;;;14.60;99.90;;;;;;5013664;28;20422;-67
2022/08/21 06:33:53;;;;;;;8.27;2.07;;;14.70;99.90;;;;;;5015391;28;20197;-67
2022/08/21 06:36:20;;;;;;;3.03;1.20;;;14.80;99.90;;;;;;5015042;28;20493;-68
2022/08/21 06:38:46;;;;;;;3.23;1.77;;;15.00;99.90;;;;;;5015452;28;20806;-67
2022/08/21 06:41:12;;;;;;;5.17;2.00;;;15.10;99.90;;;;;;5014651;28;20471;-67
2022/08/21 06:43:38;;;;;;;3.30;1.60;;;15.30;99.90;;;;;;5015306;28;20171;-67
2022/08/21 06:46:03;;;;;;;3.33;1.23;;;15.60;99.90;;;;;;5015236;28;20187;-67
2022/08/21 06:48:31;;;;;;;7.40;2.30;;;15.80;99.90;;;;;;5016099;28;20580;-67
2022/08/21 06:50:59;;;;;;;8.23;1.60;;;16.10;99.90;;;;;;5007518;28;20180;-67
2022/08/21 06:53:25;;;;;;;3.57;1.53;;;16.30;99.90;;;;;;5003757;28;20422;-67
2022/08/21 06:55:50;;;;;;;7.73;2.20;;;16.50;99.90;;;;;;5007969;28;20512;-68
2022/08/21 06:58:16;;;;;;;4.40;2.00;;;16.70;99.90;;;;;;5034443;28;20504;-68
2022/08/21 07:00:44;;;;;;;4.60;1.87;;;16.90;99.90;;;;;;5034396;28;20199;-67
2022/08/21 07:03:22;;;;;;;3.60;1.90;;;17.00;99.90;;;;;;5034228;28;20893;-66
2022/08/21 07:05:48;;;;;;;5.50;2.10;;;17.30;99.90;;;;;;5034585;28;20404;-68
2022/08/21 07:08:14;;;;;;;3.90;1.60;;;17.50;99.90;;;;;;5034338;28;20413;-68
2022/08/21 07:10:39;;;;;;;3.40;1.43;;;17.80;99.90;;;;;;5034475;28;20425;-69
2022/08/21 07:13:05;;;;;;;3.00;1.60;;;18.10;99.90;;;;;;5033637;28;20188;-67
2022/08/21 07:15:31;;;;;;;2.43;1.40;;;18.50;99.20;;;;;;5023201;28;20263;-68
2022/08/21 07:17:58;;;;;;;2.90;1.33;;;19.00;97.60;;;;;;4994893;28;20187;-68
2022/08/21 07:20:24;;;;;;;9.30;1.97;;;19.40;96.80;;;;;;4994927;28;20645;-68
2022/08/21 07:22:50;;;;;;;6.70;2.43;;;20.00;95.20;;;;;;4994491;28;20557;-68
2022/08/21 07:25:16;;;;;;;5.90;2.03;;;20.40;94.60;;;;;;4995279;28;20210;-67
2022/08/21 07:27:42;;;;;;;5.20;2.40;;;20.90;93.20;;;;;;4994093;28;20502;-68
2022/08/21 07:30:08;;;;;;;4.53;2.30;;;21.00;93.20;;;;;;4994910;28;20180;-68
2022/08/21 07:32:33;;;;;;;6.03;1.90;;;21.70;92.60;;;;;;4993176;28;20215;-68
2022/08/21 07:34:59;;;;;;;7.77;2.27;;;22.70;90.50;;;;;;4994745;28;21084;-68
2022/08/21 07:37:25;;;;;;;5.03;2.17;;;23.60;88.10;;;;;;4994536;28;20593;-69
2022/08/21 07:39:51;;;;;;;4.87;2.13;;;24.60;84.60;;;;;;4994576;28;20538;-68
2022/08/21 07:42:17;;;;;;;5.40;2.13;;;25.40;80.60;;;;;;4994154;28;20168;-68
2022/08/21 07:44:43;;;;;;;6.67;2.17;;;25.60;77.90;;;;;;4994370;28;20254;-68
2022/08/21 07:47:08;;;;;;;8.93;1.90;;;26.20;76.10;;;;;;4994409;28;20271;-68
2022/08/21 07:49:34;;;;;;;6.53;2.10;;;26.20;76.10;;;;;;5014298;28;20182;-68
2022/08/21 07:52:00;;;;;;;5.07;1.83;;;26.20;75.00;;;;;;5033102;28;20539;-69
2022/08/21 07:54:26;;;;;;;5.97;2.10;;;26.40;72.80;;;;;;5033756;28;20261;-69
2022/08/21 07:56:52;;;;;;;10.63;2.58;;;26.40;71.50;;;;;;5033594;28;20265;-68
2022/08/21 07:59:18;;;;;;;3.92;2.20;;;25.90;74.20;;;;;;5033548;28;20245;-69
2022/08/21 08:01:44;;;;;;;3.95;2.17;;;26.00;74.80;;;;;;5033061;28;20507;-68
2022/08/21 08:04:09;;;;;;;4.82;2.40;;;26.10;74.10;;;;;;5033217;28;20171;-68
2022/08/21 08:06:36;;;;;;;5.60;2.05;;;26.40;72.10;;;;;;5033216;28;20583;-69
2022/08/21 08:09:03;;;;;;;8.52;2.08;;;26.40;71.70;;;;;;5033232;28;20188;-69
2022/08/21 08:11:30;;;;;;;11.32;2.42;;;26.90;70.20;;;;;;5033033;28;20170;-69
2022/08/21 08:13:57;;;;;;;3.13;1.85;;;27.20;70.10;;;;;;5033219;28;20634;-69
2022/08/21 08:16:23;;;;;;;7.43;2.03;;;27.00;69.90;;;;;;5033333;28;20174;-69
2022/08/21 08:18:50;;;;;;;5.25;2.30;;;27.60;69.60;;;;;;5033157;28;20166;-69
2022/08/21 08:21:15;;;;;;;9.88;2.15;;;27.90;67.00;;;;;;5032733;28;20293;-69
2022/08/21 08:23:43;;;;;;;7.03;1.88;;;27.70;68.00;;;;;;5032896;28;20253;-70
2022/08/21 08:26:09;;;;;;;6.75;2.30;;;27.80;68.60;;;;;;5033021;28;20178;-69
2022/08/21 08:28:34;;;;;;;5.60;2.35;;;28.00;66.50;;;;;;5032918;28;20231;-70
2022/08/21 08:31:01;;;;;;;3.60;1.75;;;28.20;65.50;;;;;;5032673;28;20654;-70
2022/08/21 08:33:27;;;;;;;5.88;2.65;;;28.60;64.30;;;;;;5031573;28;20541;-69
2022/08/21 08:35:53;;;;;;;4.35;2.17;;;29.20;62.50;;;;;;5032967;28;20197;-70
2022/08/21 08:38:21;;;;;;;6.70;2.10;;;29.00;61.90;;;;;;5032653;28;20627;-71
2022/08/21 08:41:02;;;;;;;7.60;2.60;;;29.10;60.50;;;;;;5032688;28;20284;-70
2022/08/21 08:43:29;;;;;;;4.65;2.03;;;29.10;61.20;;;;;;5032600;28;20176;-69
2022/08/21 08:45:59;;;;;;;3.83;1.50;;;28.70;61.30;;;;;;5032492;28;20190;-71
2022/08/21 08:48:46;;;;;;;6.60;1.95;;;29.00;59.70;;;;;;5032980;28;20183;-70
2022/08/21 08:51:43;;;;;;;4.88;1.95;;;28.60;61.00;;;;;;5032258;28;20312;-70
2022/08/21 08:54:15;;;;;;;5.85;2.15;;;28.60;60.50;;;;;;5030340;28;20643;-69
2022/08/21 08:56:41;;;;;;;6.00;1.85;;;29.00;59.10;;;;;;5032684;28;20708;-70
2022/08/21 08:59:18;;;;;;;5.43;2.17;;;28.70;59.80;;;;;;5032700;28;20174;-70
2022/08/21 09:01:44;;;;;;;7.03;1.95;;;28.40;60.00;;;;;;5032384;28;20490;-69
2022/08/21 09:04:12;;;;;;;3.53;1.50;;;28.40;59.70;;;;;;5032570;28;20189;-70
2022/08/21 09:07:04;;;;;;;4.15;2.35;;;28.30;59.90;;;;;;5032491;28;20174;-69
2022/08/21 09:09:56;;;;;;;10.98;2.03;;;29.00;58.70;;;;;;5023809;28;20288;-70
2022/08/21 09:12:40;;;;;;;7.07;2.63;;;28.30;59.80;;;;;;5032131;28;20174;-69
2022/08/21 09:15:28;;;;;;;4.20;2.15;;;28.20;60.40;;;;;;5032265;28;20170;-69
2022/08/21 09:18:37;;;;;;;6.75;1.85;;;28.40;59.50;;;;;;5032488;28;20193;-69
2022/08/21 09:21:23;;;;;;;4.22;1.73;;;28.20;59.40;;;;;;5009536;28;20198;-70
2022/08/21 09:23:59;;;;;;;8.15;2.95;;;28.30;59.10;;;;;;5031561;28;20186;-69
2022/08/21 09:27:02;;;;;;;5.32;2.50;;;28.40;59.70;;;;;;5032211;28;20518;-69
2022/08/21 09:29:31;;;;;;;7.80;2.17;;;28.20;59.40;;;;;;5032187;28;20170;-70
2022/08/21 09:31:57;;;;;;;9.18;2.50;;;28.00;60.00;;;;;;5030594;28;20216;-69
2022/08/21 09:34:31;;;;;;;5.78;1.90;;;28.20;59.30;;;;;;5032095;28;20714;-69
2022/08/21 09:36:57;;;;;;;14.40;2.47;;;28.10;58.60;;;;;;5032113;28;20159;-69
2022/08/21 09:39:30;;;;;;;4.25;1.75;;;27.70;60.60;;;;;;5031854;28;20173;-69
2022/08/21 09:42:01;;;;;;;8.00;2.05;;;27.70;58.60;;;;;;5031365;28;20244;-69
2022/08/21 09:44:29;;;;;;;2.72;1.38;;;27.60;58.60;;;;;;5031962;28;20178;-69
2022/08/21 09:46:56;;;;;;;4.05;1.75;;;27.80;59.20;;;;;;5031982;28;20790;-69
2022/08/21 09:49:34;;;;;;;4.05;1.58;;;28.20;56.60;;;;;;5031788;28;20594;-69
2022/08/21 09:52:01;;;;;;;7.57;2.42;;;27.80;57.50;;;;;;5034339;28;20209;-69
2022/08/21 09:54:32;;;;;;;5.95;1.30;;;27.60;58.40;;;;;;5035626;28;20182;-69
2022/08/21 10:00:21;;;;;;;9.70;1.50;;;28.10;57.70;;;;;;5035671;28;20251;-69
2022/08/21 10:02:47;;;;;;;5.90;1.50;;;28.20;58.40;;;;;;5035121;28;20178;-69
2022/08/21 10:05:23;;;;;;;5.88;1.65;;;28.20;56.00;;;;;;5035603;28;20174;-69
2022/08/21 10:07:49;;;;;;;5.95;2.05;;;27.50;57.00;;;;;;5035746;28;20205;-68
2022/08/21 10:10:18;;;;;;;5.72;2.22;;;26.60;58.60;;;;;;5035362;28;20166;-69
2022/08/21 10:13:02;;;;;;;3.13;1.63;;;26.00;59.60;;;;;;5035278;28;20228;-68
2022/08/21 10:15:39;;;;;;;4.90;2.00;;;26.10;61.40;;;;;;5035602;28;20185;-69
2022/08/21 10:18:11;;;;;;;3.73;1.73;;;25.90;62.80;;;;;;5035712;28;20165;-69
2022/08/21 10:21:02;;;;;;;4.10;1.47;;;26.20;62.20;;;;;;5035564;28;20182;-68
2022/08/21 10:23:50;;;;;;;4.70;1.70;;;26.00;61.60;;;;;;5025229;28;20190;-68
2022/08/21 10:26:37;;;;;;;4.90;1.90;;;25.80;61.20;;;;;;5025038;28;20425;-68
2022/08/21 10:29:15;;;;;;;5.27;2.40;;;25.70;62.00;;;;;;5035528;28;20499;-68
2022/08/21 10:31:51;;;;;;;8.03;2.43;;;25.50;62.20;;;;;;5033907;28;20388;-68
2022/08/21 10:34:37;;;;;;;8.20;2.60;;;25.30;62.70;;;;;;5035447;28;20858;-68
2022/08/21 10:37:14;;;;;;;7.07;1.80;;;24.90;63.40;;;;;;5035468;28;20405;-68
2022/08/21 10:39:53;;;;;;;3.47;1.53;;;24.90;63.40;;;;;;5035051;28;20941;-68
2022/08/21 10:43:13;;;;;;;5.20;1.97;;;25.20;62.50;;;;;;5034715;28;20408;-69
2022/08/21 10:45:42;;;;;;;3.33;1.30;;;25.50;60.50;;;;;;5012673;28;20418;-68
2022/08/21 10:48:22;;;;;;;7.07;1.90;;;25.80;61.70;;;;;;5033709;28;20460;-69
2022/08/21 10:51:12;;;;;;;14.37;2.17;;;25.80;59.50;;;;;;5015194;28;20406;-68
2022/08/21 10:53:59;;;;;;;4.77;2.30;;;25.90;60.70;;;;;;5003881;28;20422;-69
2022/08/21 10:56:31;;;;;;;8.33;1.70;;;25.80;59.70;;;;;;5023491;28;20405;-69
2022/08/21 10:59:16;;;;;;;9.23;2.60;;;25.90;58.80;;;;;;5034806;28;20485;-68
2022/08/21 11:01:54;;;;;;;7.23;4.10;;;25.60;59.80;;;;;;5033806;28;20440;-68
2022/08/21 11:04:23;;;;;;;19.33;2.20;;;25.30;59.90;;;;;;5034053;28;20408;-68
2022/08/21 11:06:57;;;;;;;4.10;1.83;;;25.20;59.90;;;;;;5034527;28;20409;-68
2022/08/21 11:09:25;;;;;;;4.00;2.10;;;24.80;60.60;;;;;;5034501;28;20409;-68
2022/08/21 11:12:20;;;;;;;3.30;1.50;;;24.60;61.30;;;;;;5033890;28;20417;-68
2022/08/21 11:15:11;;;;;;;4.27;1.43;;;24.30;62.10;;;;;;5034287;28;20467;-68
2022/08/21 11:17:46;;;;;;;6.37;1.73;;;24.20;62.70;;;;;;5034371;28;20953;-69
2022/08/21 11:20:42;;;;;;;2.80;1.37;;;24.10;62.90;;;;;;5034143;28;20461;-68
2022/08/21 11:23:26;;;;;;;3.80;1.90;;;24.60;62.70;;;;;;5033287;28;20421;-68
2022/08/21 11:26:07;;;;;;;8.60;1.90;;;25.00;61.30;;;;;;5033953;28;20408;-68
2022/08/21 11:28:58;;;;;;;6.70;1.43;;;25.40;60.40;;;;;;5034090;28;20487;-68
2022/08/21 11:32:00;;;;;;;5.20;1.50;;;25.60;60.90;;;;;;5032561;28;20405;-68
2022/08/21 11:34:34;;;;;;;3.50;1.60;;;25.40;61.10;;;;;;5033788;28;20431;-68
2022/08/21 11:37:32;;;;;;;5.40;1.73;;;25.10;61.00;;;;;;5033930;28;20404;-68
2022/08/21 11:40:04;;;;;;;2.57;1.23;;;25.30;60.60;;;;;;5033790;28;20397;-69
2022/08/21 11:42:35;;;;;;;3.07;1.47;;;25.60;59.80;;;;;;5033272;28;20415;-68
2022/08/21 11:45:26;;;;;;;3.83;1.70;;;25.80;58.80;;;;;;5033876;28;20401;-69
2022/08/21 11:48:13;;;;;;;4.87;1.50;;;25.40;59.50;;;;;;5033774;28;20939;-69
2022/08/21 11:50:41;;;;;;;4.40;2.00;;;25.20;60.50;;;;;;5033333;28;20423;-68
2022/08/21 11:53:07;;;;;;;15.33;2.00;;;25.10;60.30;;;;;;5033546;28;20417;-69
2022/08/21 11:55:42;;;;;;;8.43;1.67;;;24.80;60.10;;;;;;5033732;28;20483;-69
2022/08/21 11:58:17;;;;;;;15.93;2.20;;;24.60;60.30;;;;;;5033810;28;20500;-69
2022/08/21 12:00:53;;;;;;;3.30;1.67;;;24.60;59.20;;;;;;5033574;28;20518;-69
2022/08/21 12:03:29;;;;;;;5.70;1.40;;;25.00;60.70;;;;;;5033332;28;20409;-68
2022/08/21 12:06:01;;;;;;;4.30;1.97;;;25.50;61.00;;;;;;5033633;28;20419;-68
2022/08/21 12:08:36;;;;;;;7.70;2.00;;;25.90;58.00;;;;;;5033588;28;20932;-69
2022/08/21 12:11:06;;;;;;;4.30;1.47;;;26.30;59.40;;;;;;5032918;28;20412;-69
2022/08/21 12:13:54;;;;;;;3.77;1.63;;;26.80;57.80;;;;;;5032974;28;20941;-69
2022/08/21 12:17:01;;;;;;;2.73;1.73;;;27.00;57.60;;;;;;5033189;28;20420;-69
2022/08/21 12:19:31;;;;;;;6.33;1.43;;;27.20;57.20;;;;;;5033006;28;20494;-68
2022/08/21 12:22:08;;;;;;;11.27;2.10;;;26.70;58.90;;;;;;5032600;28;20939;-68
2022/08/21 12:24:45;;;;;;;3.20;1.60;;;26.20;58.70;;;;;;5033228;28;20474;-69
2022/08/21 12:27:25;;;;;;;5.47;1.80;;;26.00;59.30;;;;;;5033161;28;21027;-68
2022/08/21 12:30:00;;;;;;;4.87;1.80;;;26.20;58.60;;;;;;5032974;28;20409;-69
2022/08/21 12:32:50;;;;;;;2.83;1.23;;;26.20;59.10;;;;;;5031478;28;20428;-68
2022/08/21 12:35:25;;;;;;;2.93;1.30;;;26.20;58.90;;;;;;5021472;28;20420;-69
2022/08/21 12:38:03;;;;;;;4.43;2.03;;;26.40;59.70;;;;;;5033085;28;20447;-69
2022/08/21 12:40:55;;;;;;;9.93;2.23;;;27.00;58.30;;;;;;5033017;28;20796;-69
2022/08/21 12:43:35;;;;;;;3.70;1.60;;;27.30;57.50;;;;;;5032483;28;20409;-69
2022/08/21 12:46:04;;;;;;;3.60;1.60;;;27.60;57.00;;;;;;5032816;28;20166;-68
2022/08/21 12:48:38;;;;;;;4.53;1.37;;;27.90;56.70;;;;;;5032716;28;20177;-68
2022/08/21 12:51:04;;;;;;;4.33;1.93;;;27.90;55.60;;;;;;5032193;28;20224;-69
2022/08/21 12:53:52;;;;;;;6.77;1.90;;;27.90;55.90;;;;;;5032577;28;20186;-69
2022/08/21 12:56:20;;;;;;;4.23;2.07;;;28.00;55.40;;;;;;5032230;28;20676;-69
2022/08/21 12:58:57;;;;;;;4.10;2.03;;;28.10;55.60;;;;;;5032407;28;20174;-69
2022/08/21 13:01:34;;;;;;;3.55;1.58;;;28.20;56.20;;;;;;5031984;28;20208;-68
2022/08/21 13:04:07;;;;;;;4.05;1.48;;;28.10;55.00;;;;;;5032239;28;20685;-68
2022/08/21 13:06:38;;;;;;;1.95;1.10;;;28.10;55.80;;;;;;5032545;28;20170;-69